Time;durP1;ratioP1;P1;durP2;ratioP2;P2;SDS_P1;SDS_P2;PMS_P1;PMS_P2;Temp;Humidity;BMP_temperature;BMP_pressure;BME280_temperature;BME280_humidity;BME280_pressure;Samples;Min_cycle;Max_cycle;Signal;HPM_P1;HPM_P2
2023/03/01 00:02:00;;;;;;;87.22;34.28;;;-0.90;99.90;;;;;;5003969;28;20563;-80
2023/03/01 00:04:25;;;;;;;366.83;74.13;;;-0.90;99.90;;;;;;4988846;28;20042;-80
2023/03/01 00:06:51;;;;;;;61.28;28.58;;;-1.00;99.90;;;;;;4993300;28;20030;-80
2023/03/01 00:09:17;;;;;;;26.83;20.58;;;-1.10;99.90;;;;;;4974309;28;20036;-80
2023/03/01 00:11:43;;;;;;;821.88;85.78;;;-1.20;99.90;;;;;;4983543;28;20088;-80
2023/03/01 00:14:09;;;;;;;120.85;31.30;;;-1.00;99.90;;;;;;4985458;28;20042;-80
2023/03/01 00:16:40;;;;;;;137.90;35.33;;;-1.10;99.90;;;;;;4990296;28;20505;-80
2023/03/01 00:19:09;;;;;;;241.73;39.13;;;-1.00;99.90;;;;;;4979951;28;20047;-80
2023/03/01 00:21:35;;;;;;;312.05;42.85;;;-1.10;99.90;;;;;;4999034;28;20539;-80
2023/03/01 00:24:01;;;;;;;223.75;39.38;;;-1.00;99.90;;;;;;4976270;28;20062;-81
2023/03/01 00:26:27;;;;;;;108.05;34.13;;;-1.10;99.90;;;;;;5058461;28;20038;-80
2023/03/01 00:28:55;;;;;;;63.22;29.50;;;-1.00;99.90;;;;;;5005404;28;20145;-80
2023/03/01 00:31:27;;;;;;;195.88;39.15;;;-1.00;99.90;;;;;;4998641;28;20036;-80
2023/03/01 00:33:56;;;;;;;88.78;33.97;;;-1.10;99.90;;;;;;4981342;28;20187;-80
2023/03/01 00:36:23;;;;;;;69.50;30.50;;;-1.00;99.90;;;;;;4971278;28;20095;-81
2023/03/01 00:38:49;;;;;;;320.40;41.65;;;-1.00;99.90;;;;;;4975526;28;20038;-80
2023/03/01 00:41:16;;;;;;;56.25;26.48;;;-1.10;99.90;;;;;;4971357;28;20042;-80
2023/03/01 00:43:44;;;;;;;81.13;27.42;;;-1.10;99.90;;;;;;4963303;28;20283;-80
2023/03/01 00:46:16;;;;;;;288.40;37.45;;;-1.10;99.90;;;;;;4982288;28;20153;-80
2023/03/01 00:48:42;;;;;;;200.88;29.08;;;-1.10;99.90;;;;;;4984562;28;20045;-80
2023/03/01 00:51:12;;;;;;;127.32;29.02;;;-1.30;99.90;;;;;;4997080;28;20250;-80
2023/03/01 00:53:39;;;;;;;136.10;28.88;;;-1.20;99.90;;;;;;4966804;28;20089;-81
2023/03/01 00:56:06;;;;;;;104.38;31.27;;;-1.20;99.90;;;;;;4961727;28;20129;-80
2023/03/01 00:58:32;;;;;;;103.03;28.83;;;-1.20;99.90;;;;;;4981964;28;20038;-81
2023/03/01 01:00:58;;;;;;;51.75;25.90;;;-1.30;99.90;;;;;;4964009;28;20046;-81
2023/03/01 01:03:27;;;;;;;88.75;26.63;;;-1.40;99.90;;;;;;4963279;28;20038;-80
2023/03/01 01:05:53;;;;;;;286.00;41.78;;;-1.40;99.90;;;;;;4971738;28;20516;-80
2023/03/01 01:08:20;;;;;;;64.13;25.38;;;-1.40;99.90;;;;;;4988338;28;20067;-80
2023/03/01 01:10:48;;;;;;;107.05;25.65;;;-1.50;99.90;;;;;;4967618;28;20500;-80
2023/03/01 01:13:14;;;;;;;42.15;23.10;;;-1.70;99.90;;;;;;4988170;28;20568;-80
2023/03/01 01:15:40;;;;;;;36.70;22.50;;;-1.70;99.90;;;;;;4972779;28;20038;-81
2023/03/01 01:18:06;;;;;;;59.67;23.73;;;-1.60;99.90;;;;;;5041741;28;20030;-81
2023/03/01 01:20:32;;;;;;;48.13;25.60;;;-1.70;99.90;;;;;;4961848;28;20042;-80
2023/03/01 01:22:58;;;;;;;66.30;24.52;;;-1.70;99.90;;;;;;5000337;28;20039;-80
2023/03/01 01:25:24;;;;;;;178.95;27.67;;;-1.70;99.90;;;;;;5006047;28;20099;-81
2023/03/01 01:27:53;;;;;;;500.63;41.83;;;-1.70;99.90;;;;;;4993212;28;20043;-81
2023/03/01 01:30:19;;;;;;;310.67;34.58;;;-1.90;99.90;;;;;;4976775;28;20381;-81
2023/03/01 01:32:44;;;;;;;317.98;36.72;;;-1.90;99.90;;;;;;4999393;28;20561;-80
2023/03/01 01:35:10;;;;;;;434.67;50.28;;;-1.90;99.90;;;;;;4974283;28;21542;-81
2023/03/01 01:37:36;;;;;;;237.93;29.73;;;-2.00;99.90;;;;;;4979103;28;20043;-80
2023/03/01 01:40:04;;;;;;;468.70;46.90;;;-2.00;99.90;;;;;;5079687;28;20049;-81
2023/03/01 01:42:30;;;;;;;771.33;71.32;;;-2.00;99.90;;;;;;4991103;28;20606;-81
2023/03/01 01:45:23;;;;;;;68.95;25.15;;;-2.10;99.90;;;;;;5001144;28;20124;-81
2023/03/01 01:47:51;;;;;;;147.95;26.75;;;-2.00;99.90;;;;;;4983233;28;20100;-80
2023/03/01 01:50:18;;;;;;;91.82;24.98;;;-2.00;99.90;;;;;;4986024;28;20472;-80
2023/03/01 01:52:46;;;;;;;40.53;23.23;;;-2.00;99.90;;;;;;5005491;28;20046;-81
2023/03/01 01:55:16;;;;;;;35.58;23.20;;;-2.10;99.90;;;;;;5045925;28;20027;-81
2023/03/01 01:57:45;;;;;;;233.27;42.22;;;-2.00;99.90;;;;;;5017995;28;20038;-81
2023/03/01 02:00:18;;;;;;;240.75;30.83;;;-2.10;99.90;;;;;;4956369;28;20507;-80
2023/03/01 02:02:48;;;;;;;252.50;33.67;;;-2.10;99.90;;;;;;4986368;28;20345;-81
2023/03/01 02:05:43;;;;;;;252.10;29.58;;;-2.20;99.90;;;;;;4971544;28;20499;-80
2023/03/01 02:08:10;;;;;;;134.68;24.50;;;-2.10;99.90;;;;;;5044445;28;20176;-80
2023/03/01 02:10:36;;;;;;;97.20;22.83;;;-2.10;99.90;;;;;;5005907;28;20117;-81
2023/03/01 02:13:03;;;;;;;101.88;20.80;;;-2.10;99.90;;;;;;4981852;28;20042;-81
2023/03/01 02:15:36;;;;;;;76.00;21.30;;;-2.20;99.90;;;;;;5006368;28;20031;-81
2023/03/01 02:18:03;;;;;;;173.35;24.40;;;-2.20;99.90;;;;;;4977323;28;20038;-81
2023/03/01 02:20:48;;;;;;;321.88;32.67;;;-2.30;99.90;;;;;;4994489;28;20248;-80
2023/03/01 02:23:14;;;;;;;317.92;28.52;;;-2.40;99.90;;;;;;5046363;28;20100;-81
2023/03/01 02:25:50;;;;;;;300.98;28.77;;;-2.40;99.90;;;;;;4989141;28;20031;-80
2023/03/01 02:28:15;;;;;;;289.30;37.42;;;-2.40;99.90;;;;;;4989107;28;20074;-81
2023/03/01 02:33:36;;;;;;;253.73;29.30;;;-2.30;99.90;;;;;;4996324;28;20078;-80
2023/03/01 02:36:09;;;;;;;193.60;32.67;;;-2.30;99.90;;;;;;4974944;28;20029;-81
2023/03/01 02:38:35;;;;;;;258.98;34.17;;;-2.40;99.90;;;;;;5001623;28;20034;-80
2023/03/01 02:41:03;;;;;;;267.98;35.42;;;-2.50;99.90;;;;;;4999913;28;20376;-80
2023/03/01 02:43:31;;;;;;;212.13;32.15;;;-2.50;99.90;;;;;;4989493;28;20037;-80
2023/03/01 02:46:14;;;;;;;310.23;35.30;;;-2.40;99.90;;;;;;4987828;28;20046;-81
2023/03/01 02:48:51;;;;;;;209.57;30.83;;;-2.60;99.90;;;;;;4966086;28;20091;-81
2023/03/01 02:51:44;;;;;;;304.13;37.90;;;-2.60;99.90;;;;;;5008224;28;20168;-81
2023/03/01 02:54:29;;;;;;;332.35;40.10;;;-2.50;99.90;;;;;;4981195;28;20284;-80
2023/03/01 02:56:55;;;;;;;;;;;-2.70;99.90;;;;;;4969700;28;20030;-81
2023/03/01 02:59:26;;;;;;;34.72;24.70;;;-2.70;99.90;;;;;;5062802;28;19922;-81
2023/03/01 03:01:52;;;;;;;43.08;27.17;;;-2.80;99.90;;;;;;4978294;28;20858;-80
2023/03/01 03:04:19;;;;;;;128.93;28.20;;;-2.80;99.90;;;;;;4995013;28;20038;-81
2023/03/01 03:06:47;;;;;;;187.13;33.63;;;-2.80;99.90;;;;;;5038406;28;20144;-80
2023/03/01 03:09:14;;;;;;;330.67;40.25;;;-2.80;99.90;;;;;;5038286;28;20104;-80
2023/03/01 03:11:40;;;;;;;153.93;30.80;;;-2.80;99.90;;;;;;4984500;28;20132;-80
2023/03/01 03:14:12;;;;;;;180.02;36.72;;;-2.80;99.90;;;;;;4976744;28;20038;-80
2023/03/01 03:16:49;;;;;;;141.80;31.85;;;-2.80;99.90;;;;;;4987403;28;20144;-81
2023/03/01 03:19:16;;;;;;;106.65;30.92;;;-2.90;99.90;;;;;;4974607;28;20042;-81
2023/03/01 03:21:42;;;;;;;200.05;30.83;;;-2.90;99.90;;;;;;4972431;28;20037;-81
2023/03/01 03:24:08;;;;;;;248.32;33.33;;;-2.80;99.90;;;;;;4981893;28;20145;-81
2023/03/01 03:26:34;;;;;;;195.93;30.30;;;-2.80;99.90;;;;;;4965603;28;20453;-81
2023/03/01 03:29:00;;;;;;;115.03;27.60;;;-2.80;99.90;;;;;;4984735;28;20054;-81
2023/03/01 03:31:26;;;;;;;165.88;31.92;;;-2.90;99.90;;;;;;4978207;28;20057;-80
2023/03/01 03:33:52;;;;;;;109.25;28.85;;;-2.90;99.90;;;;;;4975458;28;20042;-80
2023/03/01 03:36:20;;;;;;;200.13;33.95;;;-2.90;99.90;;;;;;4980646;28;20088;-81
2023/03/01 03:38:46;;;;;;;95.35;28.40;;;-3.00;99.90;;;;;;4978292;28;20241;-80
2023/03/01 03:41:12;;;;;;;69.35;27.20;;;-3.10;99.90;;;;;;5056291;28;20445;-81
2023/03/01 03:43:40;;;;;;;96.13;29.92;;;-3.10;99.90;;;;;;5000467;28;20031;-80
2023/03/01 03:46:06;;;;;;;165.85;32.10;;;-3.10;99.90;;;;;;5035367;28;20753;-80
2023/03/01 03:48:44;;;;;;;124.55;30.30;;;-3.10;99.90;;;;;;4971310;28;20060;-81
2023/03/01 03:51:14;;;;;;;95.05;28.08;;;-3.20;99.90;;;;;;5001810;28;20040;-81
2023/03/01 03:53:41;;;;;;;109.95;29.48;;;-3.10;99.90;;;;;;5011794;28;20120;-81
2023/03/01 03:56:07;;;;;;;242.73;37.95;;;-3.20;99.90;;;;;;4987497;28;20648;-81
2023/03/01 03:58:33;;;;;;;247.10;34.72;;;-3.30;99.90;;;;;;4985537;28;20046;-81
2023/03/01 04:01:00;;;;;;;122.97;30.27;;;-3.30;99.90;;;;;;4976344;28;20106;-81
2023/03/01 04:03:27;;;;;;;41.33;24.65;;;-3.30;99.90;;;;;;4978405;28;20096;-81
2023/03/01 04:05:53;;;;;;;34.50;21.95;;;-3.30;99.90;;;;;;4985683;28;20049;-81
2023/03/01 04:08:21;;;;;;;27.48;22.00;;;-3.30;99.90;;;;;;4985813;28;20362;-81
2023/03/01 04:10:50;;;;;;;24.95;19.90;;;-3.30;99.90;;;;;;4967955;28;20042;-81
2023/03/01 04:13:20;;;;;;;25.90;20.83;;;-3.40;99.90;;;;;;5000717;28;20129;-80
2023/03/01 04:15:55;;;;;;;24.85;19.60;;;-3.40;99.90;;;;;;5017352;28;20032;-81
2023/03/01 04:18:23;;;;;;;27.90;22.48;;;-3.40;99.90;;;;;;5060834;28;20038;-81
2023/03/01 04:20:48;;;;;;;27.30;22.13;;;-3.30;99.90;;;;;;4963008;28;20045;-80
2023/03/01 04:23:20;;;;;;;36.40;25.95;;;-3.40;99.90;;;;;;5002613;28;20053;-81
2023/03/01 04:25:53;;;;;;;43.38;26.08;;;-3.40;99.90;;;;;;4980258;28;20599;-80
2023/03/01 04:28:34;;;;;;;33.00;24.10;;;-3.50;99.90;;;;;;4987630;28;20053;-80
2023/03/01 04:31:12;;;;;;;29.80;24.15;;;-3.50;99.90;;;;;;5001083;28;20038;-81
2023/03/01 04:33:52;;;;;;;29.42;22.95;;;-3.50;99.90;;;;;;4967696;28;20141;-81
2023/03/01 04:36:19;;;;;;;27.27;21.90;;;-3.40;99.90;;;;;;4992281;28;20282;-81
2023/03/01 04:38:47;;;;;;;28.60;22.05;;;-3.50;99.90;;;;;;4971385;28;20096;-81
2023/03/01 04:41:14;;;;;;;28.90;23.83;;;-3.50;99.90;;;;;;4978163;28;20046;-81
2023/03/01 04:43:40;;;;;;;30.08;23.58;;;-3.50;99.90;;;;;;4970424;28;20110;-80
2023/03/01 04:46:10;;;;;;;30.15;22.98;;;-3.40;99.90;;;;;;4990040;28;20649;-81
2023/03/01 04:48:38;;;;;;;30.08;22.55;;;-3.50;99.90;;;;;;4969702;28;20330;-81
2023/03/01 04:51:05;;;;;;;30.25;23.65;;;-3.50;99.90;;;;;;4980437;28;20050;-81
2023/03/01 04:53:32;;;;;;;33.38;24.27;;;-3.60;99.90;;;;;;4995680;28;20123;-81
2023/03/01 04:55:59;;;;;;;29.45;23.13;;;-3.50;99.90;;;;;;4981725;28;20367;-81
2023/03/01 04:58:26;;;;;;;27.50;22.20;;;-3.60;99.90;;;;;;4987396;28;20045;-81
2023/03/01 05:00:53;;;;;;;30.98;22.88;;;-3.60;99.90;;;;;;4996868;28;20927;-80
2023/03/01 05:03:19;;;;;;;25.85;21.10;;;-3.60;99.90;;;;;;4983807;28;20641;-81
2023/03/01 05:05:48;;;;;;;25.88;21.48;;;-3.60;99.90;;;;;;4990163;28;20095;-80
2023/03/01 05:08:17;;;;;;;31.73;24.13;;;-3.60;99.90;;;;;;5046027;28;20035;-80
2023/03/01 05:10:49;;;;;;;29.73;23.55;;;-3.60;99.90;;;;;;4992954;28;20485;-81
2023/03/01 05:13:20;;;;;;;34.13;25.25;;;-3.70;99.90;;;;;;4979110;28;20044;-81
2023/03/01 05:15:48;;;;;;;29.17;22.55;;;-3.60;99.90;;;;;;4966924;28;20045;-80
2023/03/01 05:18:14;;;;;;;27.48;21.75;;;-3.60;99.90;;;;;;4976225;28;20093;-80
2023/03/01 05:20:39;;;;;;;31.75;24.10;;;-3.70;99.90;;;;;;4980937;28;20042;-80
2023/03/01 05:23:05;;;;;;;32.40;24.63;;;-3.70;99.90;;;;;;4987945;28;20035;-80
2023/03/01 05:25:33;;;;;;;33.28;24.25;;;-3.80;99.90;;;;;;4992711;28;20046;-81
2023/03/01 05:28:04;;;;;;;31.02;23.98;;;-3.80;99.90;;;;;;4994819;28;20148;-80
2023/03/01 05:30:34;;;;;;;34.20;25.23;;;-3.90;99.90;;;;;;4960883;28;20119;-80
2023/03/01 05:33:00;;;;;;;33.88;25.60;;;-3.80;99.90;;;;;;4973211;28;20046;-81
2023/03/01 05:35:26;;;;;;;28.35;22.42;;;-3.90;99.90;;;;;;5000106;28;20127;-81
2023/03/01 05:37:52;;;;;;;27.08;21.92;;;-3.90;99.90;;;;;;4985693;28;20534;-81
2023/03/01 05:40:21;;;;;;;31.38;23.83;;;-3.90;99.90;;;;;;4963535;28;20058;-80
2023/03/01 05:42:51;;;;;;;30.23;23.52;;;-4.00;99.90;;;;;;4972676;28;20038;-81
2023/03/01 05:45:18;;;;;;;29.15;23.00;;;-4.00;99.90;;;;;;4962983;28;20046;-80
2023/03/01 05:47:46;;;;;;;25.73;21.52;;;-4.00;99.90;;;;;;4974612;28;20037;-80
2023/03/01 05:50:23;;;;;;;30.00;23.40;;;-4.10;99.90;;;;;;4978653;28;20049;-80
2023/03/01 05:53:07;;;;;;;31.20;24.00;;;-4.00;99.90;;;;;;4991105;28;20038;-80
2023/03/01 05:55:35;;;;;;;29.35;23.40;;;-4.00;99.90;;;;;;5013660;28;20110;-82
2023/03/01 05:58:03;;;;;;;33.20;24.85;;;-4.00;99.90;;;;;;4995850;28;20046;-81
2023/03/01 06:00:30;;;;;;;28.90;23.42;;;-4.00;99.90;;;;;;4973500;28;20356;-81
2023/03/01 06:02:57;;;;;;;29.33;22.73;;;-4.10;99.90;;;;;;5055538;28;20046;-81
2023/03/01 06:05:23;;;;;;;26.27;21.05;;;-4.10;99.90;;;;;;4978190;28;20070;-80
2023/03/01 06:07:50;;;;;;;29.65;22.92;;;-4.10;99.90;;;;;;5011402;28;20083;-81
2023/03/01 06:10:17;;;;;;;28.20;22.45;;;-4.10;99.90;;;;;;5043257;28;20097;-81
2023/03/01 06:12:43;;;;;;;28.08;22.00;;;-4.10;99.90;;;;;;4993997;28;20034;-81
2023/03/01 06:15:12;;;;;;;36.67;25.17;;;-4.10;99.90;;;;;;4971727;28;20512;-81
2023/03/01 06:17:39;;;;;;;68.85;29.17;;;-4.00;99.90;;;;;;4998004;28;20546;-81
2023/03/01 06:20:08;;;;;;;32.70;24.67;;;-4.00;99.90;;;;;;5060507;28;20046;-81
2023/03/01 06:22:34;;;;;;;30.77;22.63;;;-4.00;99.90;;;;;;5044373;28;20534;-80
2023/03/01 06:25:00;;;;;;;44.03;28.65;;;-4.10;99.90;;;;;;4985858;28;20036;-82
2023/03/01 06:27:25;;;;;;;46.15;29.55;;;-4.00;99.90;;;;;;4963620;28;20034;-80
2023/03/01 06:29:51;;;;;;;33.20;23.90;;;-4.00;99.90;;;;;;4987796;28;20086;-80
2023/03/01 06:32:17;;;;;;;33.40;24.95;;;-4.10;99.90;;;;;;5021693;28;20034;-80
2023/03/01 06:34:42;;;;;;;30.92;23.80;;;-4.00;99.90;;;;;;4996665;28;20088;-81
2023/03/01 06:37:08;;;;;;;32.70;23.08;;;-4.00;99.90;;;;;;4984532;28;20161;-80
2023/03/01 06:39:34;;;;;;;30.98;23.42;;;-4.00;99.90;;;;;;4982718;28;20488;-80
2023/03/01 06:42:00;;;;;;;28.13;22.25;;;-3.90;99.90;;;;;;4978225;28;20041;-80
2023/03/01 06:44:26;;;;;;;27.40;22.67;;;-3.90;99.90;;;;;;5012444;28;20478;-81
2023/03/01 06:46:52;;;;;;;27.13;21.90;;;-3.90;99.90;;;;;;4990584;28;20188;-80
2023/03/01 06:49:18;;;;;;;29.27;21.73;;;-3.90;99.90;;;;;;4976527;28;20042;-81
2023/03/01 06:51:44;;;;;;;30.35;22.98;;;-3.80;99.90;;;;;;5000234;28;20038;-80
2023/03/01 06:54:10;;;;;;;28.17;21.88;;;-3.70;99.90;;;;;;5005113;28;20046;-81
2023/03/01 06:56:36;;;;;;;29.70;22.23;;;-3.70;99.90;;;;;;4994947;28;20477;-80
2023/03/01 06:59:02;;;;;;;28.35;21.55;;;-3.70;99.90;;;;;;4992490;28;20295;-79
2023/03/01 07:01:29;;;;;;;27.75;21.40;;;-3.60;99.90;;;;;;4995215;28;20079;-81
2023/03/01 07:03:57;;;;;;;29.17;21.45;;;-3.50;99.90;;;;;;4993673;28;20078;-81
2023/03/01 07:06:23;;;;;;;30.15;22.33;;;-3.50;99.90;;;;;;4997539;28;20117;-81
2023/03/01 07:08:49;;;;;;;28.17;22.05;;;-3.50;99.90;;;;;;4995090;28;20516;-81
2023/03/01 07:11:15;;;;;;;28.48;21.42;;;-3.40;99.90;;;;;;5056738;28;20077;-81
2023/03/01 07:13:41;;;;;;;27.60;21.55;;;-3.30;99.90;;;;;;4996225;28;20581;-80
2023/03/01 07:16:10;;;;;;;29.38;20.65;;;-3.30;99.90;;;;;;4982784;28;20046;-81
2023/03/01 07:18:36;;;;;;;26.95;19.80;;;-3.20;99.90;;;;;;4963176;28;20095;-81
2023/03/01 07:21:10;;;;;;;25.73;18.80;;;-3.10;99.90;;;;;;5039907;28;20041;-80
2023/03/01 07:23:36;;;;;;;27.35;17.83;;;-3.10;99.90;;;;;;4993923;28;20077;-80
2023/03/01 07:26:02;;;;;;;29.33;18.52;;;-2.90;99.90;;;;;;5039382;28;20131;-81
2023/03/01 07:28:28;;;;;;;27.23;18.63;;;-2.80;99.90;;;;;;4971956;28;20133;-81
2023/03/01 07:30:54;;;;;;;30.95;19.02;;;-2.80;99.90;;;;;;4988985;28;20467;-81
2023/03/01 07:33:20;;;;;;;28.98;19.55;;;-2.70;99.90;;;;;;5060459;28;20034;-81
2023/03/01 07:35:46;;;;;;;27.75;18.48;;;-2.50;99.90;;;;;;4988450;28;20440;-80
2023/03/01 07:38:12;;;;;;;30.15;18.88;;;-2.50;99.90;;;;;;5013708;28;20073;-81
2023/03/01 07:40:37;;;;;;;26.30;18.13;;;-2.30;99.90;;;;;;4982450;28;20415;-81
2023/03/01 07:43:03;;;;;;;27.80;18.33;;;-2.10;99.90;;;;;;5011223;28;20043;-81
2023/03/01 07:45:29;;;;;;;29.52;19.48;;;-2.00;99.90;;;;;;4964920;28;20134;-81
2023/03/01 07:47:55;;;;;;;29.85;20.35;;;-1.80;99.90;;;;;;4975999;28;20103;-81
2023/03/01 07:50:22;;;;;;;30.52;20.08;;;-1.80;99.90;;;;;;4986925;28;20577;-81
2023/03/01 07:52:49;;;;;;;29.13;19.67;;;-1.60;99.90;;;;;;5005512;28;20932;-81
2023/03/01 07:55:16;;;;;;;31.45;20.38;;;-1.50;99.90;;;;;;5004740;28;20689;-82
2023/03/01 07:57:42;;;;;;;32.28;20.75;;;-1.30;99.90;;;;;;4994158;28;20194;-81
2023/03/01 08:00:11;;;;;;;28.52;19.15;;;-1.20;99.90;;;;;;4957166;28;20374;-82
2023/03/01 08:02:41;;;;;;;31.42;20.75;;;-0.90;99.90;;;;;;4979518;28;20035;-82
2023/03/01 08:05:09;;;;;;;30.48;20.80;;;-0.80;99.90;;;;;;4983414;28;20044;-83
2023/03/01 08:07:35;;;;;;;27.55;18.73;;;-0.70;99.90;;;;;;4995124;28;20108;-84
2023/03/01 08:10:00;;;;;;;36.17;23.05;;;-0.50;99.90;;;;;;4988524;28;20109;-85
2023/03/01 08:12:27;;;;;;;36.13;22.38;;;-0.30;99.90;;;;;;4989755;28;20527;-85
2023/03/01 08:14:53;;;;;;;40.25;24.63;;;-0.10;99.90;;;;;;5072672;28;20046;-85
2023/03/01 08:17:19;;;;;;;34.70;23.75;;;0.00;99.90;;;;;;4971747;28;20353;-86
2023/03/01 08:19:45;;;;;;;35.65;23.52;;;0.00;99.90;;;;;;4996029;28;20129;-85
2023/03/01 08:22:10;;;;;;;36.03;23.80;;;0.10;99.90;;;;;;4966173;28;20046;-86
2023/03/01 08:24:36;;;;;;;35.80;23.02;;;0.20;99.90;;;;;;4997028;28;20299;-87
2023/03/01 08:27:02;;;;;;;33.78;22.77;;;0.20;99.90;;;;;;4970109;28;20092;-86
2023/03/01 08:29:31;;;;;;;42.25;25.58;;;0.30;99.90;;;;;;4971171;28;20050;-86
2023/03/01 08:31:57;;;;;;;38.35;24.80;;;0.40;99.90;;;;;;4991988;28;20041;-85
2023/03/01 08:34:22;;;;;;;42.05;24.52;;;0.50;99.90;;;;;;4981792;28;20038;-86
2023/03/01 08:36:49;;;;;;;40.50;25.38;;;0.60;99.90;;;;;;4963913;28;20437;-86
2023/03/01 08:39:18;;;;;;;36.95;24.73;;;0.80;99.90;;;;;;4971447;28;20046;-87
2023/03/01 08:41:47;;;;;;;35.30;23.17;;;0.80;99.90;;;;;;4982991;28;20042;-87
2023/03/01 08:44:16;;;;;;;40.65;24.98;;;0.90;99.90;;;;;;4996344;28;20038;-87
2023/03/01 08:46:45;;;;;;;33.85;22.48;;;1.00;99.90;;;;;;4972917;28;20034;-86
2023/03/01 08:49:15;;;;;;;36.00;23.80;;;1.00;99.90;;;;;;4971749;28;20037;-86
2023/03/01 08:51:41;;;;;;;36.17;24.58;;;1.30;99.90;;;;;;4992320;28;20418;-85
2023/03/01 08:54:20;;;;;;;38.88;25.83;;;1.20;99.90;;;;;;4980146;28;20080;-85
2023/03/01 08:57:09;;;;;;;38.95;25.55;;;1.40;99.90;;;;;;4973337;28;20066;-85
2023/03/01 08:59:38;;;;;;;41.28;26.60;;;1.60;99.90;;;;;;4973340;28;20487;-85
2023/03/01 09:02:05;;;;;;;42.58;27.42;;;1.80;99.90;;;;;;5043163;28;20500;-84
2023/03/01 09:04:33;;;;;;;45.58;28.65;;;1.90;99.90;;;;;;5066769;28;20042;-84
2023/03/01 09:07:01;;;;;;;39.65;25.65;;;1.90;99.90;;;;;;4966718;28;20042;-84
2023/03/01 09:09:27;;;;;;;41.03;24.88;;;2.10;99.90;;;;;;4994969;28;20060;-83
2023/03/01 09:11:53;;;;;;;39.75;26.15;;;2.30;99.90;;;;;;5059864;28;20034;-84
2023/03/01 09:14:21;;;;;;;40.28;25.88;;;2.20;99.90;;;;;;4987627;28;20198;-85
2023/03/01 09:16:47;;;;;;;43.17;27.95;;;2.30;99.90;;;;;;4974889;28;20032;-84
2023/03/01 09:19:13;;;;;;;42.15;26.20;;;2.30;99.90;;;;;;4977293;28;20061;-84
2023/03/01 09:21:39;;;;;;;38.63;25.27;;;2.50;99.90;;;;;;4970864;28;20090;-84
2023/03/01 09:24:07;;;;;;;38.70;25.65;;;2.60;99.90;;;;;;5047902;28;20030;-85
2023/03/01 09:26:32;;;;;;;47.08;28.13;;;2.80;99.90;;;;;;4988495;28;20051;-85
2023/03/01 09:28:58;;;;;;;45.95;29.20;;;2.90;99.90;;;;;;4972417;28;20054;-85
2023/03/01 09:31:25;;;;;;;43.50;28.67;;;3.10;99.90;;;;;;4980035;28;20057;-85
2023/03/01 09:33:53;;;;;;;54.25;32.47;;;3.20;99.90;;;;;;4979811;28;20049;-84
2023/03/01 09:36:22;;;;;;;49.80;32.83;;;3.10;99.90;;;;;;4964753;28;20030;-85
2023/03/01 09:38:49;;;;;;;50.35;30.15;;;3.20;99.90;;;;;;4983999;28;20042;-84
2023/03/01 09:41:17;;;;;;;54.10;30.80;;;3.40;99.90;;;;;;4996031;28;20046;-84
2023/03/01 09:43:54;;;;;;;63.03;33.67;;;3.60;99.90;;;;;;5060294;28;20042;-85
2023/03/01 09:46:22;;;;;;;55.08;32.88;;;3.70;99.90;;;;;;4967849;28;20553;-85
2023/03/01 09:49:05;;;;;;;51.45;33.38;;;4.00;99.90;;;;;;5002879;28;20036;-85
2023/03/01 09:51:34;;;;;;;52.08;34.15;;;4.00;99.90;;;;;;4992571;28;20048;-84
2023/03/01 09:54:05;;;;;;;45.55;29.95;;;4.10;99.90;;;;;;5015268;28;20034;-84
2023/03/01 09:56:44;;;;;;;49.75;30.60;;;4.20;99.90;;;;;;5007247;28;20236;-84
2023/03/01 09:59:28;;;;;;;40.83;27.58;;;4.30;99.90;;;;;;4991590;28;20031;-84
2023/03/01 10:02:19;;;;;;;38.67;24.87;;;4.30;99.90;;;;;;4982136;28;20500;-85
2023/03/01 10:05:04;;;;;;;39.60;25.23;;;4.50;99.90;;;;;;4978559;28;20139;-84
2023/03/01 10:07:56;;;;;;;37.47;23.90;;;4.70;99.90;;;;;;5002522;28;20107;-85
2023/03/01 10:10:33;;;;;;;35.33;23.05;;;4.80;99.90;;;;;;4987276;28;20049;-84
2023/03/01 10:13:28;;;;;;;36.30;21.45;;;4.90;99.90;;;;;;4988346;28;20042;-85
2023/03/01 10:15:57;;;;;;;34.80;22.33;;;5.00;99.90;;;;;;5011293;28;20040;-85
2023/03/01 10:18:27;;;;;;;36.28;22.83;;;5.00;99.90;;;;;;5003132;28;20074;-86
2023/03/01 10:20:58;;;;;;;32.80;21.45;;;5.20;99.90;;;;;;4983560;28;20070;-84
2023/03/01 10:23:27;;;;;;;30.98;20.08;;;5.20;99.90;;;;;;5081395;28;20104;-86
2023/03/01 10:26:14;;;;;;;33.92;21.98;;;5.30;99.90;;;;;;4994890;28;20579;-85
2023/03/01 10:29:04;;;;;;;37.88;25.30;;;5.30;99.90;;;;;;5063942;28;20050;-85
2023/03/01 10:31:38;;;;;;;34.47;23.95;;;5.10;99.90;;;;;;4990182;28;21471;-86
2023/03/01 10:34:11;;;;;;;34.65;22.05;;;5.50;99.90;;;;;;4993748;28;20554;-85
2023/03/01 10:36:40;;;;;;;31.40;23.10;;;5.60;99.90;;;;;;4990674;28;20049;-85
2023/03/01 10:39:13;;;;;;;33.15;22.63;;;5.60;1.00;;;;;;4996344;28;20137;-85
2023/03/01 10:41:58;;;;;;;36.88;25.35;;;5.60;99.90;;;;;;4974312;28;20438;-85
2023/03/01 10:44:54;;;;;;;34.53;24.65;;;5.90;99.90;;;;;;4987269;28;20042;-85
2023/03/01 10:47:21;;;;;;;35.15;23.52;;;6.00;99.90;;;;;;4979431;28;20463;-85
2023/03/01 10:50:00;;;;;;;28.20;19.90;;;6.20;99.90;;;;;;4995131;28;20491;-85
2023/03/01 10:52:32;;;;;;;25.50;17.27;;;6.30;24.40;;;;;;4988973;28;20046;-86
2023/03/01 10:55:03;;;;;;;24.00;16.48;;;6.30;99.90;;;;;;4985560;28;21144;-86
2023/03/01 10:57:39;;;;;;;26.60;16.60;;;6.30;99.90;;;;;;5077313;27;20034;-85
2023/03/01 11:00:22;;;;;;;22.92;17.10;;;6.30;99.90;;;;;;4989956;28;20106;-86
2023/03/01 11:02:51;;;;;;;25.73;19.10;;;6.60;1.00;;;;;;4968455;28;20157;-85
2023/03/01 11:05:20;;;;;;;31.20;20.13;;;6.50;99.90;;;;;;4991228;28;20040;-86
2023/03/01 11:07:52;;;;;;;26.17;19.38;;;6.60;1.00;;;;;;4994024;28;20069;-86
2023/03/01 11:10:27;;;;;;;30.08;20.00;;;6.70;1.00;;;;;;4996948;28;20038;-86
2023/03/01 11:12:54;;;;;;;31.55;20.77;;;6.80;1.00;;;;;;4973587;28;20284;-86
2023/03/01 11:15:28;;;;;;;29.92;20.38;;;6.90;1.00;;;;;;4968284;28;20358;-86
2023/03/01 11:17:55;;;;;;;26.10;19.08;;;7.00;1.00;;;;;;4978247;28;20074;-85
2023/03/01 11:20:30;;;;;;;28.38;19.15;;;7.10;1.00;;;;;;4977466;28;20366;-86
2023/03/01 11:23:10;;;;;;;21.45;16.38;;;7.20;99.90;;;;;;4998657;28;20042;-86
2023/03/01 11:25:40;;;;;;;24.48;17.60;;;7.00;99.90;;;;;;4967477;28;20046;-86
2023/03/01 11:28:12;;;;;;;20.42;15.30;;;7.20;1.00;;;;;;4984671;28;20045;-87
2023/03/01 11:30:49;;;;;;;19.75;15.07;;;7.20;99.90;;;;;;4998756;28;20048;-86
2023/03/01 11:33:37;;;;;;;21.65;14.75;;;7.40;99.90;;;;;;5059108;28;20034;-86
2023/03/01 11:36:33;;;;;;;18.83;14.02;;;7.50;73.10;;;;;;5011257;28;20042;-87
2023/03/01 11:39:14;;;;;;;18.90;12.98;;;7.50;99.90;;;;;;5012987;28;20519;-86
2023/03/01 11:41:41;;;;;;;16.55;12.75;;;7.50;99.90;;;;;;4992307;28;20032;-86
2023/03/01 11:44:28;;;;;;;15.60;12.57;;;7.40;1.00;;;;;;4985127;28;20055;-87
2023/03/01 11:47:30;;;;;;;17.67;12.68;;;7.30;1.00;;;;;;5000685;28;20065;-87
2023/03/01 11:50:14;;;;;;;17.17;12.57;;;7.60;1.00;;;;;;4993744;28;20045;-87
2023/03/01 11:52:57;;;;;;;18.13;13.43;;;7.60;99.90;;;;;;5021424;28;20054;-86
2023/03/01 11:55:55;;;;;;;15.82;12.30;;;7.80;99.90;;;;;;5000178;28;20036;-87
2023/03/01 11:58:40;;;;;;;19.83;13.60;;;7.90;99.90;;;;;;5086379;28;20116;-87
2023/03/01 12:01:34;;;;;;;16.77;13.18;;;7.70;99.90;;;;;;5050265;28;20045;-86
2023/03/01 12:04:30;;;;;;;20.42;13.52;;;8.00;99.90;;;;;;4997504;28;20231;-87
2023/03/01 12:07:00;;;;;;;16.73;13.27;;;8.00;99.90;;;;;;5019175;28;20042;-86
2023/03/01 12:09:49;;;;;;;20.05;13.65;;;8.30;99.90;;;;;;4993613;28;20063;-86
2023/03/01 12:12:38;;;;;;;18.15;13.57;;;8.30;99.90;;;;;;4995220;28;20129;-86
2023/03/01 12:15:28;;;;;;;20.50;15.60;;;8.20;99.90;;;;;;5077937;28;20194;-86
2023/03/01 12:18:19;;;;;;;19.17;13.48;;;8.40;99.90;;;;;;5003351;28;20123;-86
2023/03/01 12:20:51;;;;;;;18.13;14.57;;;8.60;99.90;;;;;;4981690;28;20042;-86
2023/03/01 12:23:31;;;;;;;18.95;14.77;;;8.80;99.90;;;;;;4998585;28;20040;-86
2023/03/01 12:26:23;;;;;;;19.02;14.25;;;9.00;99.90;;;;;;4976651;28;20056;-86
2023/03/01 12:29:19;;;;;;;17.70;13.80;;;8.90;99.90;;;;;;4995519;28;20092;-86
2023/03/01 12:32:02;;;;;;;18.90;13.70;;;9.00;58.70;;;;;;5004770;28;20700;-86
2023/03/01 12:34:34;;;;;;;16.45;13.05;;;9.10;1.00;;;;;;5001335;28;20588;-86
2023/03/01 12:37:20;;;;;;;16.98;13.23;;;9.20;1.00;;;;;;4988855;28;20035;-85
2023/03/01 12:40:01;;;;;;;16.63;13.07;;;9.30;1.00;;;;;;4978364;28;20041;-86
2023/03/01 12:42:40;;;;;;;19.23;13.45;;;9.10;99.90;;;;;;4969810;28;20373;-85
2023/03/01 12:45:48;;;;;;;19.00;14.63;;;9.20;99.90;;;;;;5061017;28;20044;-86
2023/03/01 12:48:18;;;;;;;18.45;14.68;;;9.30;99.90;;;;;;5026955;28;20065;-86
2023/03/01 12:50:51;;;;;;;20.50;15.35;;;9.30;99.90;;;;;;5062047;28;20030;-86